sensor_id;sensor_type;location;lat;lon;timestamp;pressure;altitude;pressure_sealevel;temperature;humidity
79645;BME280;69117;47.148;18.954;2023-05-20T00:02:04;100975.06;;;13.97;0.00
79645;BME280;69117;47.148;18.954;2023-05-20T00:05:06;100965.50;;;13.87;0.00
79645;BME280;69117;47.148;18.954;2023-05-20T00:08:08;100976.84;;;13.89;0.00
79645;BME280;69117;47.148;18.954;2023-05-20T00:11:11;100968.69;;;13.90;0.00
79645;BME280;69117;47.148;18.954;2023-05-20T00:14:13;100975.53;;;13.93;0.00
79645;BME280;69117;47.148;18.954;2023-05-20T00:17:14;100970.59;;;13.80;0.00
79645;BME280;69117;47.148;18.954;2023-05-20T00:20:16;100982.19;;;13.79;0.00
79645;BME280;69117;47.148;18.954;2023-05-20T00:23:18;100993.03;;;13.68;0.00
79645;BME280;69117;47.148;18.954;2023-05-20T00:26:19;100983.53;;;13.65;0.00
79645;BME280;69117;47.148;18.954;2023-05-20T00:29:21;100987.66;;;13.78;0.00
79645;BME280;69117;47.148;18.954;2023-05-20T00:32:23;100977.09;;;13.68;0.00
79645;BME280;69117;47.148;18.954;2023-05-20T00:35:25;100997.88;;;13.72;0.00
79645;BME280;69117;47.148;18.954;2023-05-20T00:38:27;101002.50;;;13.70;0.00
79645;BME280;69117;47.148;18.954;2023-05-20T00:41:28;101008.59;;;13.81;0.00
79645;BME280;69117;47.148;18.954;2023-05-20T00:44:30;101001.91;;;13.77;0.00
79645;BME280;69117;47.148;18.954;2023-05-20T00:47:33;100992.56;;;13.72;0.00
79645;BME280;69117;47.148;18.954;2023-05-20T00:50:37;100996.66;;;13.67;0.00
79645;BME280;69117;47.148;18.954;2023-05-20T00:53:39;101000.75;;;13.61;0.00
79645;BME280;69117;47.148;18.954;2023-05-20T00:56:41;101002.56;;;13.61;0.00
79645;BME280;69117;47.148;18.954;2023-05-20T00:59:43;101002.97;;;13.66;0.00
79645;BME280;69117;47.148;18.954;2023-05-20T01:02:45;100984.59;;;13.72;0.00
79645;BME280;69117;47.148;18.954;2023-05-20T01:05:47;101002.78;;;13.77;0.00
79645;BME280;69117;47.148;18.954;2023-05-20T01:08:48;101007.81;;;13.70;0.00
79645;BME280;69117;47.148;18.954;2023-05-20T01:11:57;101002.50;;;13.70;0.00
79645;BME280;69117;47.148;18.954;2023-05-20T01:15:06;101002.47;;;13.80;0.00
79645;BME280;69117;47.148;18.954;2023-05-20T01:18:09;101000.72;;;13.71;0.00
79645;BME280;69117;47.148;18.954;2023-05-20T01:21:12;100994.84;;;13.67;0.00
79645;BME280;69117;47.148;18.954;2023-05-20T01:24:14;101008.28;;;13.66;0.00
79645;BME280;69117;47.148;18.954;2023-05-20T01:27:15;101002.56;;;13.61;0.00
79645;BME280;69117;47.148;18.954;2023-05-20T01:30:17;101001.63;;;13.52;0.00
79645;BME280;69117;47.148;18.954;2023-05-20T01:33:21;101006.50;;;13.57;0.00
79645;BME280;69117;47.148;18.954;2023-05-20T01:36:25;100988.41;;;13.42;0.00
79645;BME280;69117;47.148;18.954;2023-05-20T01:39:28;101008.50;;;13.45;0.00
79645;BME280;69117;47.148;18.954;2023-05-20T01:42:31;100996.56;;;13.31;0.00
79645;BME280;69117;47.148;18.954;2023-05-20T01:45:34;101000.06;;;13.32;0.00
79645;BME280;69117;47.148;18.954;2023-05-20T01:48:36;100999.38;;;13.29;0.00
79645;BME280;69117;47.148;18.954;2023-05-20T01:51:38;100988.22;;;13.16;0.00
79645;BME280;69117;47.148;18.954;2023-05-20T01:54:40;101009.00;;;13.21;0.00
79645;BME280;69117;47.148;18.954;2023-05-20T01:57:42;100987.22;;;13.17;0.00
79645;BME280;69117;47.148;18.954;2023-05-20T02:00:43;100977.34;;;13.10;0.00
79645;BME280;69117;47.148;18.954;2023-05-20T02:03:45;100983.06;;;13.15;0.00
79645;BME280;69117;47.148;18.954;2023-05-20T02:06:47;100984.88;;;13.14;0.00
79645;BME280;69117;47.148;18.954;2023-05-20T02:09:48;100992.97;;;13.13;0.00
79645;BME280;69117;47.148;18.954;2023-05-20T02:12:50;100981.09;;;13.07;0.00
79645;BME280;69117;47.148;18.954;2023-05-20T02:15:52;100981.94;;;13.17;0.00
79645;BME280;69117;47.148;18.954;2023-05-20T02:18:54;100985.66;;;13.24;0.00
79645;BME280;69117;47.148;18.954;2023-05-20T02:21:55;100981.78;;;13.28;0.00
79645;BME280;69117;47.148;18.954;2023-05-20T02:24:57;100991.34;;;13.39;0.00
79645;BME280;69117;47.148;18.954;2023-05-20T02:27:59;100991.22;;;13.41;0.00
79645;BME280;69117;47.148;18.954;2023-05-20T02:31:01;100987.69;;;13.50;0.00
79645;BME280;69117;47.148;18.954;2023-05-20T02:34:02;100994.94;;;13.48;0.00
79645;BME280;69117;47.148;18.954;2023-05-20T02:37:05;100985.06;;;13.40;0.00
79645;BME280;69117;47.148;18.954;2023-05-20T02:40:07;100973.31;;;13.43;0.00
79645;BME280;69117;47.148;18.954;2023-05-20T02:43:09;100977.25;;;13.39;0.00
79645;BME280;69117;47.148;18.954;2023-05-20T02:46:11;100985.31;;;13.47;0.00
79645;BME280;69117;47.148;18.954;2023-05-20T02:49:13;100983.94;;;13.43;0.00
79645;BME280;69117;47.148;18.954;2023-05-20T02:52:14;100981.03;;;13.36;0.00
79645;BME280;69117;47.148;18.954;2023-05-20T02:55:16;100982.84;;;13.36;0.00
79645;BME280;69117;47.148;18.954;2023-05-20T02:58:18;100981.50;;;13.32;0.00
79645;BME280;69117;47.148;18.954;2023-05-20T03:01:26;100987.16;;;13.37;0.00
79645;BME280;69117;47.148;18.954;2023-05-20T03:04:29;100985.09;;;13.31;0.00
79645;BME280;69117;47.148;18.954;2023-05-20T03:07:33;100988.47;;;13.23;0.00
79645;BME280;69117;47.148;18.954;2023-05-20T03:10:37;100993.34;;;13.27;0.00
79645;BME280;69117;47.148;18.954;2023-05-20T03:13:39;101010.09;;;13.28;0.00
79645;BME280;69117;47.148;18.954;2023-05-20T03:16:41;101007.47;;;13.18;0.00
79645;BME280;69117;47.148;18.954;2023-05-20T03:19:43;101003.28;;;13.16;0.00
79645;BME280;69117;47.148;18.954;2023-05-20T03:22:44;101010.56;;;13.14;0.00
79645;BME280;69117;47.148;18.954;2023-05-20T03:25:47;101015.44;;;13.18;0.00
79645;BME280;69117;47.148;18.954;2023-05-20T03:28:48;101002.44;;;13.15;0.00
79645;BME280;69117;47.148;18.954;2023-05-20T03:31:50;101015.28;;;13.20;0.00
79645;BME280;69117;47.148;18.954;2023-05-20T03:34:52;101011.66;;;13.21;0.00
79645;BME280;69117;47.148;18.954;2023-05-20T03:37:54;101001.47;;;13.26;0.00
79645;BME280;69117;47.148;18.954;2023-05-20T03:40:56;101010.38;;;13.35;0.00
79645;BME280;69117;47.148;18.954;2023-05-20T03:43:58;101012.69;;;13.47;0.00
79645;BME280;69117;47.148;18.954;2023-05-20T03:46:59;101017.25;;;13.55;0.00
79645;BME280;69117;47.148;18.954;2023-05-20T03:50:01;101017.66;;;13.60;0.00
79645;BME280;69117;47.148;18.954;2023-05-20T03:53:03;101022.38;;;13.66;0.00
79645;BME280;69117;47.148;18.954;2023-05-20T03:56:05;101023.38;;;13.65;0.00
79645;BME280;69117;47.148;18.954;2023-05-20T03:59:07;101037.28;;;13.77;0.00
79645;BME280;69117;47.148;18.954;2023-05-20T04:02:08;101036.81;;;13.82;0.00
79645;BME280;69117;47.148;18.954;2023-05-20T04:05:10;101043.53;;;13.86;0.00
79645;BME280;69117;47.148;18.954;2023-05-20T04:08:12;101046.97;;;13.96;0.00
79645;BME280;69117;47.148;18.954;2023-05-20T04:11:14;101050.69;;;14.03;0.00
79645;BME280;69117;47.148;18.954;2023-05-20T04:14:15;101056.63;;;14.15;0.00
79645;BME280;69117;47.148;18.954;2023-05-20T04:17:17;101051.84;;;14.18;0.00
79645;BME280;69117;47.148;18.954;2023-05-20T04:20:19;101055.41;;;14.27;0.00
79645;BME280;69117;47.148;18.954;2023-05-20T04:23:20;101061.66;;;14.36;0.00
79645;BME280;69117;47.148;18.954;2023-05-20T04:26:22;101057.56;;;14.41;0.00
79645;BME280;69117;47.148;18.954;2023-05-20T04:29:24;101068.66;;;14.55;0.00
79645;BME280;69117;47.148;18.954;2023-05-20T04:32:25;101060.75;;;14.63;0.00
79645;BME280;69117;47.148;18.954;2023-05-20T04:35:27;101060.66;;;14.73;0.00
79645;BME280;69117;47.148;18.954;2023-05-20T04:38:30;101070.06;;;14.85;0.00
79645;BME280;69117;47.148;18.954;2023-05-20T04:41:32;101069.47;;;14.91;0.00
79645;BME280;69117;47.148;18.954;2023-05-20T04:44:34;101070.56;;;15.06;0.00
79645;BME280;69117;47.148;18.954;2023-05-20T04:47:36;101067.75;;;15.08;0.00
79645;BME280;69117;47.148;18.954;2023-05-20T04:50:39;101061.88;;;15.22;0.00
79645;BME280;69117;47.148;18.954;2023-05-20T04:53:42;101054.41;;;15.26;0.00
79645;BME280;69117;47.148;18.954;2023-05-20T04:56:46;101065.44;;;15.39;0.00
79645;BME280;69117;47.148;18.954;2023-05-20T04:59:48;101056.50;;;15.48;0.00
79645;BME280;69117;47.148;18.954;2023-05-20T05:02:49;101070.25;;;15.62;0.00
79645;BME280;69117;47.148;18.954;2023-05-20T05:05:55;101056.25;;;15.60;0.00
79645;BME280;69117;47.148;18.954;2023-05-20T05:08:57;101065.00;;;15.78;0.00
79645;BME280;69117;47.148;18.954;2023-05-20T05:11:58;101070.03;;;15.89;0.00
79645;BME280;69117;47.148;18.954;2023-05-20T05:15:00;101075.59;;;16.04;0.00
79645;BME280;69117;47.148;18.954;2023-05-20T05:18:02;101071.28;;;16.11;0.00
79645;BME280;69117;47.148;18.954;2023-05-20T05:21:05;101065.13;;;16.19;0.00
79645;BME280;69117;47.148;18.954;2023-05-20T05:24:07;101066.63;;;16.21;0.00
79645;BME280;69117;47.148;18.954;2023-05-20T05:27:08;101075.47;;;16.30;0.00
79645;BME280;69117;47.148;18.954;2023-05-20T05:30:10;101080.16;;;16.36;0.00
79645;BME280;69117;47.148;18.954;2023-05-20T05:33:13;101078.50;;;16.52;0.00
79645;BME280;69117;47.148;18.954;2023-05-20T05:36:16;101067.00;;;16.59;0.00
79645;BME280;69117;47.148;18.954;2023-05-20T05:39:18;101072.72;;;16.81;0.00
79645;BME280;69117;47.148;18.954;2023-05-20T05:42:19;101076.72;;;16.85;0.00
79645;BME280;69117;47.148;18.954;2023-05-20T05:45:21;101070.22;;;16.96;0.00
79645;BME280;69117;47.148;18.954;2023-05-20T05:48:23;101076.03;;;17.07;0.00
79645;BME280;69117;47.148;18.954;2023-05-20T05:51:26;101076.34;;;17.29;0.00
79645;BME280;69117;47.148;18.954;2023-05-20T05:54:28;101068.44;;;17.44;0.00
79645;BME280;69117;47.148;18.954;2023-05-20T05:57:30;101073.38;;;17.63;0.00
79645;BME280;69117;47.148;18.954;2023-05-20T06:00:32;101058.50;;;17.69;0.00
79645;BME280;69117;47.148;18.954;2023-05-20T06:03:33;101064.19;;;17.66;0.00
79645;BME280;69117;47.148;18.954;2023-05-20T06:06:35;101050.81;;;17.66;0.00
79645;BME280;69117;47.148;18.954;2023-05-20T06:09:38;101056.97;;;17.82;0.00
79645;BME280;69117;47.148;18.954;2023-05-20T06:12:39;101055.25;;;17.90;0.00
79645;BME280;69117;47.148;18.954;2023-05-20T06:15:41;101059.59;;;17.91;0.00
79645;BME280;69117;47.148;18.954;2023-05-20T06:18:44;101063.25;;;17.98;0.00
79645;BME280;69117;47.148;18.954;2023-05-20T06:21:46;101066.72;;;18.29;0.00
79645;BME280;69117;47.148;18.954;2023-05-20T06:24:48;101062.16;;;18.38;0.00
79645;BME280;69117;47.148;18.954;2023-05-20T06:27:50;101068.22;;;18.55;0.00
79645;BME280;69117;47.148;18.954;2023-05-20T06:30:53;101070.91;;;18.55;0.00
79645;BME280;69117;47.148;18.954;2023-05-20T06:33:55;101068.91;;;18.72;0.00
79645;BME280;69117;47.148;18.954;2023-05-20T06:36:57;101061.72;;;18.72;0.00
79645;BME280;69117;47.148;18.954;2023-05-20T06:39:59;101078.56;;;18.81;0.00
79645;BME280;69117;47.148;18.954;2023-05-20T06:43:01;101071.41;;;18.96;0.00
79645;BME280;69117;47.148;18.954;2023-05-20T06:46:02;101060.09;;;19.09;0.00
79645;BME280;69117;47.148;18.954;2023-05-20T06:49:04;101055.34;;;18.96;0.00
79645;BME280;69117;47.148;18.954;2023-05-20T06:52:06;101066.09;;;19.26;0.00
79645;BME280;69117;47.148;18.954;2023-05-20T06:55:08;101063.88;;;19.44;0.00
79645;BME280;69117;47.148;18.954;2023-05-20T06:58:10;101054.56;;;19.40;0.00
79645;BME280;69117;47.148;18.954;2023-05-20T07:01:11;101059.38;;;19.75;0.00
79645;BME280;69117;47.148;18.954;2023-05-20T07:04:14;101066.84;;;19.94;0.00
79645;BME280;69117;47.148;18.954;2023-05-20T07:07:16;101066.34;;;20.05;0.00
79645;BME280;69117;47.148;18.954;2023-05-20T07:10:18;101050.94;;;20.14;0.00
79645;BME280;69117;47.148;18.954;2023-05-20T07:13:20;101042.72;;;20.37;0.00
79645;BME280;69117;47.148;18.954;2023-05-20T07:16:24;101053.75;;;20.64;0.00
79645;BME280;69117;47.148;18.954;2023-05-20T07:19:26;101049.75;;;20.81;75.64
79645;BME280;69117;47.148;18.954;2023-05-20T07:22:27;101054.59;;;20.64;73.16
79645;BME280;69117;47.148;18.954;2023-05-20T07:25:29;101047.00;;;21.02;73.47
79645;BME280;69117;47.148;18.954;2023-05-20T07:28:31;101047.88;;;21.03;73.19
79645;BME280;69117;47.148;18.954;2023-05-20T07:31:32;101052.22;;;21.04;73.12
79645;BME280;69117;47.148;18.954;2023-05-20T07:34:34;101047.00;;;21.02;71.79
79645;BME280;69117;47.148;18.954;2023-05-20T07:37:37;101033.09;;;21.27;70.38
79645;BME280;69117;47.148;18.954;2023-05-20T07:40:39;101034.31;;;21.53;70.94
79645;BME280;69117;47.148;18.954;2023-05-20T07:43:41;101044.72;;;21.69;70.28
79645;BME280;69117;47.148;18.954;2023-05-20T07:46:43;101031.13;;;21.84;70.06
79645;BME280;69117;47.148;18.954;2023-05-20T07:49:45;101037.81;;;22.01;67.39
79645;BME280;69117;47.148;18.954;2023-05-20T07:52:47;101034.94;;;22.09;68.20
79645;BME280;69117;47.148;18.954;2023-05-20T07:55:55;101032.13;;;22.31;67.20
79645;BME280;69117;47.148;18.954;2023-05-20T07:58:58;101031.31;;;22.44;66.16
79645;BME280;69117;47.148;18.954;2023-05-20T08:02:00;101025.09;;;22.50;65.09
79645;BME280;69117;47.148;18.954;2023-05-20T08:05:02;101032.75;;;22.39;64.62
79645;BME280;69117;47.148;18.954;2023-05-20T08:08:03;101022.78;;;22.27;65.02
79645;BME280;69117;47.148;18.954;2023-05-20T08:11:06;101014.53;;;22.61;65.54
79645;BME280;69117;47.148;18.954;2023-05-20T08:14:08;101025.69;;;22.78;65.13
79645;BME280;69117;47.148;18.954;2023-05-20T08:17:09;101033.38;;;23.21;64.06
79645;BME280;69117;47.148;18.954;2023-05-20T08:20:11;101038.50;;;23.36;62.21
79645;BME280;69117;47.148;18.954;2023-05-20T08:23:13;101037.91;;;23.27;61.62
79645;BME280;69117;47.148;18.954;2023-05-20T08:26:15;101033.13;;;23.29;63.38
79645;BME280;69117;47.148;18.954;2023-05-20T08:29:17;101020.63;;;23.48;62.29
79645;BME280;69117;47.148;18.954;2023-05-20T08:32:20;101021.63;;;23.61;62.34
79645;BME280;69117;47.148;18.954;2023-05-20T08:35:22;101010.00;;;23.60;62.32
79645;BME280;69117;47.148;18.954;2023-05-20T08:38:25;101005.97;;;23.83;61.00
79645;BME280;69117;47.148;18.954;2023-05-20T08:41:26;101006.84;;;24.08;58.53
79645;BME280;69117;47.148;18.954;2023-05-20T08:44:29;101007.34;;;24.30;59.84
79645;BME280;69117;47.148;18.954;2023-05-20T08:47:31;100993.97;;;24.10;58.46
79645;BME280;69117;47.148;18.954;2023-05-20T08:50:33;101004.34;;;24.38;58.09
79645;BME280;69117;47.148;18.954;2023-05-20T08:53:35;101002.25;;;24.47;58.60
79645;BME280;69117;47.148;18.954;2023-05-20T08:56:37;100999.53;;;24.47;57.01
79645;BME280;69117;47.148;18.954;2023-05-20T08:59:44;100991.00;;;24.50;57.50
79645;BME280;69117;47.148;18.954;2023-05-20T09:02:47;100986.06;;;24.65;58.36
79645;BME280;69117;47.148;18.954;2023-05-20T09:05:49;100981.41;;;24.54;57.67
79645;BME280;69117;47.148;18.954;2023-05-20T09:08:50;100994.78;;;24.67;58.56
79645;BME280;69117;47.148;18.954;2023-05-20T09:11:53;100981.00;;;24.76;57.00
79645;BME280;69117;47.148;18.954;2023-05-20T09:14:54;100986.19;;;25.21;56.89
79645;BME280;69117;47.148;18.954;2023-05-20T09:17:59;100988.13;;;25.32;56.56
79645;BME280;69117;47.148;18.954;2023-05-20T09:21:04;100964.69;;;25.26;55.25
79645;BME280;69117;47.148;18.954;2023-05-20T09:24:09;100989.91;;;25.38;56.57
79645;BME280;69117;47.148;18.954;2023-05-20T09:27:11;100980.50;;;25.59;56.08
79645;BME280;69117;47.148;18.954;2023-05-20T09:30:13;100972.38;;;25.59;55.66
79645;BME280;69117;47.148;18.954;2023-05-20T09:33:15;100962.09;;;25.49;54.13
79645;BME280;69117;47.148;18.954;2023-05-20T09:36:18;100959.31;;;25.86;54.92
79645;BME280;69117;47.148;18.954;2023-05-20T09:39:24;100948.38;;;25.93;54.11
79645;BME280;69117;47.148;18.954;2023-05-20T09:42:34;100950.22;;;26.22;53.18
79645;BME280;69117;47.148;18.954;2023-05-20T09:45:38;100940.81;;;26.37;52.92
79645;BME280;69117;47.148;18.954;2023-05-20T09:48:40;100945.81;;;26.52;52.64
79645;BME280;69117;47.148;18.954;2023-05-20T09:51:42;100952.00;;;26.40;52.79
79645;BME280;69117;47.148;18.954;2023-05-20T09:54:45;100954.00;;;26.21;53.37
79645;BME280;69117;47.148;18.954;2023-05-20T09:57:48;100952.75;;;26.71;50.87
79645;BME280;69117;47.148;18.954;2023-05-20T10:00:51;100957.00;;;26.90;52.40
79645;BME280;69117;47.148;18.954;2023-05-20T10:03:55;100946.50;;;26.94;48.83
79645;BME280;69117;47.148;18.954;2023-05-20T10:10:58;100921.34;;;27.79;48.08
79645;BME280;69117;47.148;18.954;2023-05-20T10:21:02;100908.22;;;27.76;46.12
79645;BME280;69117;47.148;18.954;2023-05-20T10:24:10;100912.31;;;28.24;43.91
79645;BME280;69117;47.148;18.954;2023-05-20T10:27:13;100912.41;;;28.68;43.33
79645;BME280;69117;47.148;18.954;2023-05-20T10:30:17;100907.63;;;27.74;42.72
79645;BME280;69117;47.148;18.954;2023-05-20T10:33:19;100902.97;;;27.86;41.68
79645;BME280;69117;47.148;18.954;2023-05-20T10:36:25;100903.63;;;28.61;40.75
79645;BME280;69117;47.148;18.954;2023-05-20T10:39:29;100901.69;;;28.79;41.96
79645;BME280;69117;47.148;18.954;2023-05-20T10:42:31;100894.50;;;29.11;39.79
79645;BME280;69117;47.148;18.954;2023-05-20T10:45:33;100885.78;;;29.09;38.10
79645;BME280;69117;47.148;18.954;2023-05-20T10:48:40;100884.91;;;29.31;38.41
79645;BME280;69117;47.148;18.954;2023-05-20T10:51:43;100887.41;;;29.59;36.40
79645;BME280;69117;47.148;18.954;2023-05-20T10:57:54;100889.28;;;29.59;39.53
79645;BME280;69117;47.148;18.954;2023-05-20T11:00:55;100883.69;;;29.65;39.97
79645;BME280;69117;47.148;18.954;2023-05-20T11:03:57;100886.72;;;30.39;40.04
79645;BME280;69117;47.148;18.954;2023-05-20T11:07:01;100882.59;;;30.36;37.55
79645;BME280;69117;47.148;18.954;2023-05-20T11:10:07;100877.41;;;30.82;37.87
79645;BME280;69117;47.148;18.954;2023-05-20T11:13:10;100874.22;;;31.06;35.96
79645;BME280;69117;47.148;18.954;2023-05-20T11:16:12;100863.28;;;31.00;35.30
79645;BME280;69117;47.148;18.954;2023-05-20T11:19:15;100864.44;;;31.20;34.00
79645;BME280;69117;47.148;18.954;2023-05-20T11:22:17;100873.56;;;30.78;34.39
79645;BME280;69117;47.148;18.954;2023-05-20T11:25:19;100866.19;;;30.31;35.00
79645;BME280;69117;47.148;18.954;2023-05-20T11:28:22;100856.22;;;31.05;33.28
79645;BME280;69117;47.148;18.954;2023-05-20T11:31:24;100871.06;;;30.76;33.14
79645;BME280;69117;47.148;18.954;2023-05-20T11:34:34;100865.22;;;31.15;31.20
79645;BME280;69117;47.148;18.954;2023-05-20T11:37:36;100854.00;;;30.96;32.95
79645;BME280;69117;47.148;18.954;2023-05-20T11:40:45;100855.75;;;31.59;32.39
79645;BME280;69117;47.148;18.954;2023-05-20T11:43:58;100862.59;;;32.17;31.44
79645;BME280;69117;47.148;18.954;2023-05-20T11:47:01;100845.09;;;31.37;29.10
79645;BME280;69117;47.148;18.954;2023-05-20T11:50:03;100828.47;;;31.69;30.63
79645;BME280;69117;47.148;18.954;2023-05-20T11:53:07;100832.53;;;31.36;32.81
79645;BME280;69117;47.148;18.954;2023-05-20T11:56:09;100835.47;;;32.42;31.03
79645;BME280;69117;47.148;18.954;2023-05-20T11:59:10;100838.72;;;32.44;30.40
79645;BME280;69117;47.148;18.954;2023-05-20T12:02:12;100837.44;;;32.21;31.85
79645;BME280;69117;47.148;18.954;2023-05-20T12:05:16;100827.63;;;31.84;31.44
79645;BME280;69117;47.148;18.954;2023-05-20T12:08:18;100825.72;;;31.69;31.71
79645;BME280;69117;47.148;18.954;2023-05-20T12:11:20;100830.66;;;31.57;32.11
79645;BME280;69117;47.148;18.954;2023-05-20T12:14:22;100833.41;;;31.92;32.26
79645;BME280;69117;47.148;18.954;2023-05-20T12:17:24;100827.91;;;32.03;29.01
79645;BME280;69117;47.148;18.954;2023-05-20T12:20:25;100828.44;;;32.00;31.92
79645;BME280;69117;47.148;18.954;2023-05-20T12:23:27;100823.53;;;31.76;32.33
79645;BME280;69117;47.148;18.954;2023-05-20T12:26:31;100818.34;;;31.59;33.37
79645;BME280;69117;47.148;18.954;2023-05-20T12:29:33;100813.41;;;31.97;31.03
79645;BME280;69117;47.148;18.954;2023-05-20T12:32:38;100811.19;;;32.14;31.71
79645;BME280;69117;47.148;18.954;2023-05-20T12:35:41;100810.59;;;32.28;31.90
79645;BME280;69117;47.148;18.954;2023-05-20T12:38:43;100798.38;;;31.94;30.94
79645;BME280;69117;47.148;18.954;2023-05-20T12:41:44;100798.34;;;31.33;32.77
79645;BME280;69117;47.148;18.954;2023-05-20T12:44:46;100798.38;;;32.05;31.77
79645;BME280;69117;47.148;18.954;2023-05-20T12:47:48;100781.31;;;33.38;28.18
79645;BME280;69117;47.148;18.954;2023-05-20T12:50:50;100776.78;;;33.23;29.82
79645;BME280;69117;47.148;18.954;2023-05-20T12:53:52;100779.22;;;33.24;30.01
79645;BME280;69117;47.148;18.954;2023-05-20T12:56:53;100776.81;;;31.57;32.27
79645;BME280;69117;47.148;18.954;2023-05-20T12:59:55;100768.09;;;32.61;31.14
79645;BME280;69117;47.148;18.954;2023-05-20T13:02:57;100761.81;;;31.44;31.03
79645;BME280;69117;47.148;18.954;2023-05-20T13:05:59;100754.53;;;32.85;30.95
79645;BME280;69117;47.148;18.954;2023-05-20T13:09:00;100754.25;;;33.65;27.87
79645;BME280;69117;47.148;18.954;2023-05-20T13:12:02;100751.81;;;33.24;29.95
79645;BME280;69117;47.148;18.954;2023-05-20T13:15:04;100751.06;;;34.30;28.40
79645;BME280;69117;47.148;18.954;2023-05-20T13:18:06;100750.53;;;33.80;28.58
79645;BME280;69117;47.148;18.954;2023-05-20T13:21:08;100741.69;;;34.55;27.48
79645;BME280;69117;47.148;18.954;2023-05-20T13:24:10;100744.72;;;34.35;27.83
79645;BME280;69117;47.148;18.954;2023-05-20T13:27:12;100746.09;;;33.84;29.47
79645;BME280;69117;47.148;18.954;2023-05-20T13:30:13;100735.41;;;34.55;27.90
79645;BME280;69117;47.148;18.954;2023-05-20T13:33:15;100738.22;;;34.02;29.11
79645;BME280;69117;47.148;18.954;2023-05-20T13:36:17;100740.03;;;33.29;30.55
79645;BME280;69117;47.148;18.954;2023-05-20T13:39:19;100733.91;;;31.32;32.67
79645;BME280;69117;47.148;18.954;2023-05-20T13:42:20;100720.19;;;30.08;34.57
79645;BME280;69117;47.148;18.954;2023-05-20T13:45:22;100721.06;;;30.87;33.94
79645;BME280;69117;47.148;18.954;2023-05-20T13:48:24;100735.94;;;32.22;32.42
79645;BME280;69117;47.148;18.954;2023-05-20T13:51:26;100723.31;;;32.36;31.61
79645;BME280;69117;47.148;18.954;2023-05-20T13:54:27;100724.16;;;32.87;31.00
79645;BME280;69117;47.148;18.954;2023-05-20T13:57:29;100718.06;;;32.95;29.52
79645;BME280;69117;47.148;18.954;2023-05-20T14:00:31;100727.72;;;33.56;29.50
79645;BME280;69117;47.148;18.954;2023-05-20T14:03:33;100719.56;;;33.16;29.39
79645;BME280;69117;47.148;18.954;2023-05-20T14:06:36;100718.56;;;32.63;29.97
79645;BME280;69117;47.148;18.954;2023-05-20T14:09:38;100720.25;;;31.12;32.94
79645;BME280;69117;47.148;18.954;2023-05-20T14:12:40;100703.78;;;30.61;34.73
79645;BME280;69117;47.148;18.954;2023-05-20T14:15:43;100707.94;;;31.60;33.01
79645;BME280;69117;47.148;18.954;2023-05-20T14:18:44;100700.56;;;32.46;32.85
79645;BME280;69117;47.148;18.954;2023-05-20T14:21:46;100699.88;;;33.14;30.65
79645;BME280;69117;47.148;18.954;2023-05-20T14:24:48;100694.38;;;33.43;29.91
79645;BME280;69117;47.148;18.954;2023-05-20T14:27:50;100688.63;;;32.27;30.80
79645;BME280;69117;47.148;18.954;2023-05-20T14:30:51;100693.03;;;32.23;31.36
79645;BME280;69117;47.148;18.954;2023-05-20T14:33:54;100684.44;;;32.39;31.38
79645;BME280;69117;47.148;18.954;2023-05-20T14:36:57;100697.28;;;32.89;30.65
79645;BME280;69117;47.148;18.954;2023-05-20T14:39:58;100690.19;;;33.22;29.27
79645;BME280;69117;47.148;18.954;2023-05-20T14:43:00;100686.31;;;32.99;30.01
79645;BME280;69117;47.148;18.954;2023-05-20T14:46:02;100688.41;;;33.07;30.04
79645;BME280;69117;47.148;18.954;2023-05-20T14:49:04;100688.94;;;33.09;30.00
79645;BME280;69117;47.148;18.954;2023-05-20T14:52:06;100685.88;;;33.16;29.24
79645;BME280;69117;47.148;18.954;2023-05-20T14:55:08;100678.91;;;32.94;30.43
79645;BME280;69117;47.148;18.954;2023-05-20T14:58:09;100687.44;;;32.88;30.18
79645;BME280;69117;47.148;18.954;2023-05-20T15:01:11;100686.88;;;32.51;28.88
79645;BME280;69117;47.148;18.954;2023-05-20T15:04:14;100681.06;;;33.02;28.74
79645;BME280;69117;47.148;18.954;2023-05-20T15:07:15;100666.56;;;32.97;28.79
79645;BME280;69117;47.148;18.954;2023-05-20T15:10:17;100664.19;;;33.19;28.52
79645;BME280;69117;47.148;18.954;2023-05-20T15:13:19;100670.78;;;32.45;29.20
79645;BME280;69117;47.148;18.954;2023-05-20T15:16:21;100664.75;;;33.21;27.89
79645;BME280;69117;47.148;18.954;2023-05-20T15:19:24;100658.56;;;32.22;28.89
79645;BME280;69117;47.148;18.954;2023-05-20T15:22:26;100661.00;;;32.73;29.02
79645;BME280;69117;47.148;18.954;2023-05-20T15:25:28;100663.63;;;32.88;28.48
79645;BME280;69117;47.148;18.954;2023-05-20T15:28:30;100646.34;;;33.27;28.55
79645;BME280;69117;47.148;18.954;2023-05-20T15:31:31;100649.13;;;33.51;28.12
79645;BME280;69117;47.148;18.954;2023-05-20T15:34:33;100648.44;;;33.06;27.99
79645;BME280;69117;47.148;18.954;2023-05-20T15:37:35;100645.25;;;32.94;28.87
79645;BME280;69117;47.148;18.954;2023-05-20T15:40:36;100633.22;;;33.24;28.54
79645;BME280;69117;47.148;18.954;2023-05-20T15:43:38;100634.91;;;33.73;28.26
79645;BME280;69117;47.148;18.954;2023-05-20T15:46:39;100644.09;;;33.82;28.56
79645;BME280;69117;47.148;18.954;2023-05-20T15:49:42;100637.63;;;33.97;28.38
79645;BME280;69117;47.148;18.954;2023-05-20T15:52:44;100635.72;;;33.20;29.42
79645;BME280;69117;47.148;18.954;2023-05-20T15:55:46;100629.03;;;32.97;30.83
79645;BME280;69117;47.148;18.954;2023-05-20T15:58:47;100622.41;;;33.38;29.86
79645;BME280;69117;47.148;18.954;2023-05-20T16:01:49;100626.75;;;33.39;29.56